• °C
  • Pobieranie danych...
wx


SEKCJA WYDRUKÓW, pokaż »

TAF EPRA 200200Z NIL=

TAF EPSY 200230Z 2003/2012 18008KT CAVOK
TEMPO 2003/2006 4000 RA BR BKN014=

TAF EPZG 200230Z 2003/2012 21012KT 9999 BKN020
TEMPO 2007/2012 21016G28KT=



Serwisy IMGW-PIB